sensor_id;sensor_type;location;lat;lon;timestamp;temperature;humidity
12874;DHT22;6505;51.114;13.128;2022-11-20T00:01:32;6.50;47.50
12874;DHT22;6505;51.114;13.128;2022-11-20T00:04:01;6.50;47.50
12874;DHT22;6505;51.114;13.128;2022-11-20T00:06:29;6.50;47.40
12874;DHT22;6505;51.114;13.128;2022-11-20T00:08:59;6.60;47.40
12874;DHT22;6505;51.114;13.128;2022-11-20T00:11:30;6.50;47.30
12874;DHT22;6505;51.114;13.128;2022-11-20T00:14:00;6.50;47.20
12874;DHT22;6505;51.114;13.128;2022-11-20T00:16:31;6.50;47.20
12874;DHT22;6505;51.114;13.128;2022-11-20T00:19:00;6.50;47.20
12874;DHT22;6505;51.114;13.128;2022-11-20T00:21:28;6.50;47.30
12874;DHT22;6505;51.114;13.128;2022-11-20T00:23:57;6.50;47.50
12874;DHT22;6505;51.114;13.128;2022-11-20T00:26:28;6.50;47.40
12874;DHT22;6505;51.114;13.128;2022-11-20T00:28:57;6.50;47.20
12874;DHT22;6505;51.114;13.128;2022-11-20T00:31:28;6.50;47.20
12874;DHT22;6505;51.114;13.128;2022-11-20T00:33:57;6.50;47.20
12874;DHT22;6505;51.114;13.128;2022-11-20T00:36:26;6.50;47.20
12874;DHT22;6505;51.114;13.128;2022-11-20T00:38:57;6.40;47.10
12874;DHT22;6505;51.114;13.128;2022-11-20T00:41:28;6.40;47.10
12874;DHT22;6505;51.114;13.128;2022-11-20T00:43:56;6.40;47.10
12874;DHT22;6505;51.114;13.128;2022-11-20T00:46:26;6.40;46.90
12874;DHT22;6505;51.114;13.128;2022-11-20T00:48:55;6.40;47.00
12874;DHT22;6505;51.114;13.128;2022-11-20T00:51:25;6.40;47.00
12874;DHT22;6505;51.114;13.128;2022-11-20T00:53:55;6.40;47.00
12874;DHT22;6505;51.114;13.128;2022-11-20T00:56:24;6.40;47.10
12874;DHT22;6505;51.114;13.128;2022-11-20T00:58:54;6.30;46.90
12874;DHT22;6505;51.114;13.128;2022-11-20T01:01:23;6.30;47.00
12874;DHT22;6505;51.114;13.128;2022-11-20T01:03:55;6.30;47.00
12874;DHT22;6505;51.114;13.128;2022-11-20T01:06:26;6.30;47.00
12874;DHT22;6505;51.114;13.128;2022-11-20T01:08:57;6.30;47.00
12874;DHT22;6505;51.114;13.128;2022-11-20T01:11:28;6.30;47.00
12874;DHT22;6505;51.114;13.128;2022-11-20T01:13:59;6.30;46.90
12874;DHT22;6505;51.114;13.128;2022-11-20T01:16:30;6.30;46.90
12874;DHT22;6505;51.114;13.128;2022-11-20T01:19:02;6.30;46.90
12874;DHT22;6505;51.114;13.128;2022-11-20T01:21:34;6.30;46.90
12874;DHT22;6505;51.114;13.128;2022-11-20T01:24:05;6.30;46.80
12874;DHT22;6505;51.114;13.128;2022-11-20T01:26:36;6.30;46.80
12874;DHT22;6505;51.114;13.128;2022-11-20T01:29:08;6.30;46.80
12874;DHT22;6505;51.114;13.128;2022-11-20T01:31:40;6.20;46.60
12874;DHT22;6505;51.114;13.128;2022-11-20T01:34:11;6.20;46.60
12874;DHT22;6505;51.114;13.128;2022-11-20T01:36:41;6.20;46.60
12874;DHT22;6505;51.114;13.128;2022-11-20T01:39:12;6.20;46.60
12874;DHT22;6505;51.114;13.128;2022-11-20T01:41:42;6.20;46.60
12874;DHT22;6505;51.114;13.128;2022-11-20T01:44:48;6.20;46.60
12874;DHT22;6505;51.114;13.128;2022-11-20T01:47:23;6.20;46.70
12874;DHT22;6505;51.114;13.128;2022-11-20T01:49:58;6.10;46.70
12874;DHT22;6505;51.114;13.128;2022-11-20T01:52:32;6.20;46.70
12874;DHT22;6505;51.114;13.128;2022-11-20T01:55:05;6.10;46.70
12874;DHT22;6505;51.114;13.128;2022-11-20T01:57:38;6.10;46.80
12874;DHT22;6505;51.114;13.128;2022-11-20T02:00:11;6.10;46.90
12874;DHT22;6505;51.114;13.128;2022-11-20T02:02:45;6.10;46.90
12874;DHT22;6505;51.114;13.128;2022-11-20T02:05:22;6.10;47.00
12874;DHT22;6505;51.114;13.128;2022-11-20T02:07:54;6.10;46.90
12874;DHT22;6505;51.114;13.128;2022-11-20T02:10:25;6.10;47.00
12874;DHT22;6505;51.114;13.128;2022-11-20T02:12:54;6.10;46.90
12874;DHT22;6505;51.114;13.128;2022-11-20T02:15:42;6.10;46.80
12874;DHT22;6505;51.114;13.128;2022-11-20T02:18:14;6.10;46.90
12874;DHT22;6505;51.114;13.128;2022-11-20T02:20:47;6.10;46.90
12874;DHT22;6505;51.114;13.128;2022-11-20T02:23:23;6.10;46.90
12874;DHT22;6505;51.114;13.128;2022-11-20T02:25:57;6.10;47.00
12874;DHT22;6505;51.114;13.128;2022-11-20T02:28:27;6.10;47.10
12874;DHT22;6505;51.114;13.128;2022-11-20T02:30:55;6.10;47.00
12874;DHT22;6505;51.114;13.128;2022-11-20T02:33:24;6.00;47.10
12874;DHT22;6505;51.114;13.128;2022-11-20T02:35:52;6.10;46.90
12874;DHT22;6505;51.114;13.128;2022-11-20T02:38:20;6.00;46.80
12874;DHT22;6505;51.114;13.128;2022-11-20T02:40:48;6.00;46.70
12874;DHT22;6505;51.114;13.128;2022-11-20T02:43:23;6.00;46.60
12874;DHT22;6505;51.114;13.128;2022-11-20T02:45:51;6.00;46.60
12874;DHT22;6505;51.114;13.128;2022-11-20T02:48:19;6.10;46.60
12874;DHT22;6505;51.114;13.128;2022-11-20T02:50:49;6.00;46.50
12874;DHT22;6505;51.114;13.128;2022-11-20T02:53:17;6.00;46.50
12874;DHT22;6505;51.114;13.128;2022-11-20T02:55:45;6.00;46.40
12874;DHT22;6505;51.114;13.128;2022-11-20T02:58:14;6.00;46.40
12874;DHT22;6505;51.114;13.128;2022-11-20T03:00:43;6.00;46.20
12874;DHT22;6505;51.114;13.128;2022-11-20T03:03:11;5.90;46.10
12874;DHT22;6505;51.114;13.128;2022-11-20T03:05:39;6.00;46.20
12874;DHT22;6505;51.114;13.128;2022-11-20T03:08:07;5.90;46.10
12874;DHT22;6505;51.114;13.128;2022-11-20T03:10:35;5.90;46.10
12874;DHT22;6505;51.114;13.128;2022-11-20T03:13:03;5.90;46.10
12874;DHT22;6505;51.114;13.128;2022-11-20T03:15:31;5.90;46.10
12874;DHT22;6505;51.114;13.128;2022-11-20T03:18:01;5.90;46.00
12874;DHT22;6505;51.114;13.128;2022-11-20T03:20:29;5.90;46.00
12874;DHT22;6505;51.114;13.128;2022-11-20T03:22:57;5.90;46.10
12874;DHT22;6505;51.114;13.128;2022-11-20T03:25:25;5.90;46.00
12874;DHT22;6505;51.114;13.128;2022-11-20T03:27:53;5.90;46.10
12874;DHT22;6505;51.114;13.128;2022-11-20T03:30:21;5.90;46.10
12874;DHT22;6505;51.114;13.128;2022-11-20T03:32:56;5.80;46.00
12874;DHT22;6505;51.114;13.128;2022-11-20T03:35:25;5.90;46.70
12874;DHT22;6505;51.114;13.128;2022-11-20T03:37:53;5.80;45.80
12874;DHT22;6505;51.114;13.128;2022-11-20T03:40:21;5.80;45.90
12874;DHT22;6505;51.114;13.128;2022-11-20T03:42:49;5.80;45.80
12874;DHT22;6505;51.114;13.128;2022-11-20T03:45:18;5.80;45.80
12874;DHT22;6505;51.114;13.128;2022-11-20T03:47:46;5.80;45.80
12874;DHT22;6505;51.114;13.128;2022-11-20T03:50:14;5.80;45.70
12874;DHT22;6505;51.114;13.128;2022-11-20T03:52:44;5.80;45.80
12874;DHT22;6505;51.114;13.128;2022-11-20T03:55:12;5.80;45.70
12874;DHT22;6505;51.114;13.128;2022-11-20T03:57:40;5.80;45.80
12874;DHT22;6505;51.114;13.128;2022-11-20T04:00:09;5.80;45.80
12874;DHT22;6505;51.114;13.128;2022-11-20T04:02:37;5.70;45.80
12874;DHT22;6505;51.114;13.128;2022-11-20T04:05:06;5.70;45.70
12874;DHT22;6505;51.114;13.128;2022-11-20T04:07:34;5.80;45.80
12874;DHT22;6505;51.114;13.128;2022-11-20T04:10:05;5.70;45.70
12874;DHT22;6505;51.114;13.128;2022-11-20T04:12:33;5.70;45.80
12874;DHT22;6505;51.114;13.128;2022-11-20T04:15:01;5.70;45.70
12874;DHT22;6505;51.114;13.128;2022-11-20T04:17:30;5.70;45.70
12874;DHT22;6505;51.114;13.128;2022-11-20T04:19:58;5.70;45.70
12874;DHT22;6505;51.114;13.128;2022-11-20T04:22:26;5.70;45.70
12874;DHT22;6505;51.114;13.128;2022-11-20T04:24:54;5.70;45.70
12874;DHT22;6505;51.114;13.128;2022-11-20T04:27:23;5.70;45.80
12874;DHT22;6505;51.114;13.128;2022-11-20T04:29:51;5.70;45.60
12874;DHT22;6505;51.114;13.128;2022-11-20T04:32:19;5.70;45.60
12874;DHT22;6505;51.114;13.128;2022-11-20T04:34:47;5.70;45.70
12874;DHT22;6505;51.114;13.128;2022-11-20T04:37:15;5.70;45.60
12874;DHT22;6505;51.114;13.128;2022-11-20T04:39:43;5.60;45.50
12874;DHT22;6505;51.114;13.128;2022-11-20T04:42:11;5.70;45.60
12874;DHT22;6505;51.114;13.128;2022-11-20T04:44:59;5.70;45.60
12874;DHT22;6505;51.114;13.128;2022-11-20T04:47:27;5.60;45.50
12874;DHT22;6505;51.114;13.128;2022-11-20T04:49:55;5.60;45.60
12874;DHT22;6505;51.114;13.128;2022-11-20T04:52:23;5.60;46.00
12874;DHT22;6505;51.114;13.128;2022-11-20T04:54:51;5.60;45.20
12874;DHT22;6505;51.114;13.128;2022-11-20T04:57:20;5.50;45.20
12874;DHT22;6505;51.114;13.128;2022-11-20T04:59:48;5.60;45.30
12874;DHT22;6505;51.114;13.128;2022-11-20T05:02:17;5.60;45.20
12874;DHT22;6505;51.114;13.128;2022-11-20T05:04:45;5.60;45.20
12874;DHT22;6505;51.114;13.128;2022-11-20T05:07:14;5.50;45.20
12874;DHT22;6505;51.114;13.128;2022-11-20T05:09:42;5.50;45.10
12874;DHT22;6505;51.114;13.128;2022-11-20T05:12:10;5.50;45.10
12874;DHT22;6505;51.114;13.128;2022-11-20T05:14:38;5.50;45.10
12874;DHT22;6505;51.114;13.128;2022-11-20T05:17:09;5.50;45.00
12874;DHT22;6505;51.114;13.128;2022-11-20T05:19:39;5.50;45.10
12874;DHT22;6505;51.114;13.128;2022-11-20T05:22:07;5.40;44.90
12874;DHT22;6505;51.114;13.128;2022-11-20T05:24:35;5.50;45.00
12874;DHT22;6505;51.114;13.128;2022-11-20T05:27:03;5.50;45.00
12874;DHT22;6505;51.114;13.128;2022-11-20T05:29:31;5.40;44.90
12874;DHT22;6505;51.114;13.128;2022-11-20T05:31:59;5.40;44.90
12874;DHT22;6505;51.114;13.128;2022-11-20T05:34:27;5.50;44.90
12874;DHT22;6505;51.114;13.128;2022-11-20T05:36:57;5.40;44.80
12874;DHT22;6505;51.114;13.128;2022-11-20T05:39:25;5.40;44.80
12874;DHT22;6505;51.114;13.128;2022-11-20T05:41:53;5.40;44.80
12874;DHT22;6505;51.114;13.128;2022-11-20T05:44:35;5.40;44.80
12874;DHT22;6505;51.114;13.128;2022-11-20T05:47:03;5.40;44.90
12874;DHT22;6505;51.114;13.128;2022-11-20T05:49:31;5.40;44.80
12874;DHT22;6505;51.114;13.128;2022-11-20T05:52:01;5.40;44.70
12874;DHT22;6505;51.114;13.128;2022-11-20T05:54:29;5.40;44.80
12874;DHT22;6505;51.114;13.128;2022-11-20T05:56:57;5.40;44.80
12874;DHT22;6505;51.114;13.128;2022-11-20T05:59:25;5.30;44.80
12874;DHT22;6505;51.114;13.128;2022-11-20T06:01:53;5.30;44.80
12874;DHT22;6505;51.114;13.128;2022-11-20T06:04:21;5.30;44.80
12874;DHT22;6505;51.114;13.128;2022-11-20T06:06:49;5.30;44.80
12874;DHT22;6505;51.114;13.128;2022-11-20T06:09:18;5.30;44.80
12874;DHT22;6505;51.114;13.128;2022-11-20T06:11:47;5.30;44.80
12874;DHT22;6505;51.114;13.128;2022-11-20T06:14:15;5.30;44.80
12874;DHT22;6505;51.114;13.128;2022-11-20T06:16:43;5.30;44.90
12874;DHT22;6505;51.114;13.128;2022-11-20T06:19:11;5.30;44.90
12874;DHT22;6505;51.114;13.128;2022-11-20T06:21:39;5.30;44.90
12874;DHT22;6505;51.114;13.128;2022-11-20T06:24:08;5.20;44.80
12874;DHT22;6505;51.114;13.128;2022-11-20T06:26:38;5.30;44.90
12874;DHT22;6505;51.114;13.128;2022-11-20T06:29:06;5.20;44.80
12874;DHT22;6505;51.114;13.128;2022-11-20T06:31:35;5.30;44.90
12874;DHT22;6505;51.114;13.128;2022-11-20T06:34:04;5.20;44.90
12874;DHT22;6505;51.114;13.128;2022-11-20T06:36:33;5.30;44.90
12874;DHT22;6505;51.114;13.128;2022-11-20T06:39:02;5.20;44.90
12874;DHT22;6505;51.114;13.128;2022-11-20T06:41:30;5.20;44.80
12874;DHT22;6505;51.114;13.128;2022-11-20T06:44:00;5.20;44.70
12874;DHT22;6505;51.114;13.128;2022-11-20T06:46:28;5.20;44.70
12874;DHT22;6505;51.114;13.128;2022-11-20T06:48:56;5.20;44.70
12874;DHT22;6505;51.114;13.128;2022-11-20T06:51:24;5.20;44.80
12874;DHT22;6505;51.114;13.128;2022-11-20T06:53:53;5.20;44.70
12874;DHT22;6505;51.114;13.128;2022-11-20T06:56:21;5.20;44.90
12874;DHT22;6505;51.114;13.128;2022-11-20T06:58:49;5.20;44.90
12874;DHT22;6505;51.114;13.128;2022-11-20T07:01:18;5.20;45.60
12874;DHT22;6505;51.114;13.128;2022-11-20T07:03:48;5.20;44.80
12874;DHT22;6505;51.114;13.128;2022-11-20T07:06:20;5.20;44.80
12874;DHT22;6505;51.114;13.128;2022-11-20T07:08:50;5.20;44.90
12874;DHT22;6505;51.114;13.128;2022-11-20T07:11:19;5.20;44.90
12874;DHT22;6505;51.114;13.128;2022-11-20T07:13:47;5.20;44.90
12874;DHT22;6505;51.114;13.128;2022-11-20T07:16:15;5.20;45.50
12874;DHT22;6505;51.114;13.128;2022-11-20T07:18:45;5.20;44.90
12874;DHT22;6505;51.114;13.128;2022-11-20T07:21:17;5.20;45.00
12874;DHT22;6505;51.114;13.128;2022-11-20T07:23:45;5.20;45.10
12874;DHT22;6505;51.114;13.128;2022-11-20T07:26:13;5.20;45.10
12874;DHT22;6505;51.114;13.128;2022-11-20T07:28:43;5.20;45.00
12874;DHT22;6505;51.114;13.128;2022-11-20T07:31:12;5.20;45.10
12874;DHT22;6505;51.114;13.128;2022-11-20T07:33:46;5.10;45.10
12874;DHT22;6505;51.114;13.128;2022-11-20T07:36:14;5.20;45.30
12874;DHT22;6505;51.114;13.128;2022-11-20T07:38:42;5.20;45.50
12874;DHT22;6505;51.114;13.128;2022-11-20T07:41:10;5.20;45.70
12874;DHT22;6505;51.114;13.128;2022-11-20T07:43:39;5.30;46.00
12874;DHT22;6505;51.114;13.128;2022-11-20T07:46:07;5.30;46.20
12874;DHT22;6505;51.114;13.128;2022-11-20T07:48:35;5.40;46.20
12874;DHT22;6505;51.114;13.128;2022-11-20T07:51:05;5.40;46.10
12874;DHT22;6505;51.114;13.128;2022-11-20T07:53:33;5.50;46.10
12874;DHT22;6505;51.114;13.128;2022-11-20T07:56:02;5.50;46.10
12874;DHT22;6505;51.114;13.128;2022-11-20T07:58:31;5.60;46.30
12874;DHT22;6505;51.114;13.128;2022-11-20T08:01:04;5.60;46.40
12874;DHT22;6505;51.114;13.128;2022-11-20T08:03:32;5.60;46.40
12874;DHT22;6505;51.114;13.128;2022-11-20T08:06:01;5.60;46.30
12874;DHT22;6505;51.114;13.128;2022-11-20T08:08:30;5.60;46.40
12874;DHT22;6505;51.114;13.128;2022-11-20T08:11:00;5.60;46.20
12874;DHT22;6505;51.114;13.128;2022-11-20T08:13:42;5.60;46.40
12874;DHT22;6505;51.114;13.128;2022-11-20T08:16:40;5.70;46.60
12874;DHT22;6505;51.114;13.128;2022-11-20T08:19:09;5.70;46.80
12874;DHT22;6505;51.114;13.128;2022-11-20T08:21:38;5.60;46.70
12874;DHT22;6505;51.114;13.128;2022-11-20T08:24:08;5.70;46.80
12874;DHT22;6505;51.114;13.128;2022-11-20T08:26:38;5.70;46.80
12874;DHT22;6505;51.114;13.128;2022-11-20T08:29:07;5.70;47.10
12874;DHT22;6505;51.114;13.128;2022-11-20T08:31:35;5.70;46.90
12874;DHT22;6505;51.114;13.128;2022-11-20T08:34:03;5.70;47.00
12874;DHT22;6505;51.114;13.128;2022-11-20T08:36:35;5.70;47.10
12874;DHT22;6505;51.114;13.128;2022-11-20T08:39:04;5.70;47.20
12874;DHT22;6505;51.114;13.128;2022-11-20T08:41:33;5.70;47.30
12874;DHT22;6505;51.114;13.128;2022-11-20T08:44:05;5.70;47.40
12874;DHT22;6505;51.114;13.128;2022-11-20T08:46:36;5.80;47.70
12874;DHT22;6505;51.114;13.128;2022-11-20T08:49:07;5.70;47.70
12874;DHT22;6505;51.114;13.128;2022-11-20T08:51:36;5.70;47.80
12874;DHT22;6505;51.114;13.128;2022-11-20T08:54:05;5.80;47.90
12874;DHT22;6505;51.114;13.128;2022-11-20T08:56:35;5.80;48.00
12874;DHT22;6505;51.114;13.128;2022-11-20T08:59:03;5.90;48.10
12874;DHT22;6505;51.114;13.128;2022-11-20T09:01:51;5.80;48.30
12874;DHT22;6505;51.114;13.128;2022-11-20T09:04:19;5.90;48.20
12874;DHT22;6505;51.114;13.128;2022-11-20T09:06:47;5.90;48.30
12874;DHT22;6505;51.114;13.128;2022-11-20T09:09:17;5.90;48.40
12874;DHT22;6505;51.114;13.128;2022-11-20T09:11:47;6.00;48.60
12874;DHT22;6505;51.114;13.128;2022-11-20T09:14:16;6.00;48.70
12874;DHT22;6505;51.114;13.128;2022-11-20T09:16:44;6.00;48.80
12874;DHT22;6505;51.114;13.128;2022-11-20T09:19:13;6.00;49.00
12874;DHT22;6505;51.114;13.128;2022-11-20T09:22:01;6.00;49.00
12874;DHT22;6505;51.114;13.128;2022-11-20T09:24:29;6.00;49.10
12874;DHT22;6505;51.114;13.128;2022-11-20T09:27:01;6.10;49.30
12874;DHT22;6505;51.114;13.128;2022-11-20T09:29:31;6.10;49.60
12874;DHT22;6505;51.114;13.128;2022-11-20T09:31:59;6.10;49.50
12874;DHT22;6505;51.114;13.128;2022-11-20T09:34:27;6.10;49.60
12874;DHT22;6505;51.114;13.128;2022-11-20T09:36:55;6.20;50.50
12874;DHT22;6505;51.114;13.128;2022-11-20T09:39:28;6.20;50.00
12874;DHT22;6505;51.114;13.128;2022-11-20T09:45:15;6.20;50.30
12874;DHT22;6505;51.114;13.128;2022-11-20T09:47:59;6.30;50.40
12874;DHT22;6505;51.114;13.128;2022-11-20T09:50:44;6.30;50.40
12874;DHT22;6505;51.114;13.128;2022-11-20T09:53:24;6.30;50.40
12874;DHT22;6505;51.114;13.128;2022-11-20T09:56:01;6.30;50.50
12874;DHT22;6505;51.114;13.128;2022-11-20T09:58:38;6.40;50.50
12874;DHT22;6505;51.114;13.128;2022-11-20T10:01:12;6.40;50.40
12874;DHT22;6505;51.114;13.128;2022-11-20T10:03:52;6.40;51.20
12874;DHT22;6505;51.114;13.128;2022-11-20T10:06:28;6.40;50.50
12874;DHT22;6505;51.114;13.128;2022-11-20T10:09:16;6.40;50.60
12874;DHT22;6505;51.114;13.128;2022-11-20T10:11:59;6.40;50.70
12874;DHT22;6505;51.114;13.128;2022-11-20T10:14:47;6.50;50.80
12874;DHT22;6505;51.114;13.128;2022-11-20T10:17:36;6.50;50.70
12874;DHT22;6505;51.114;13.128;2022-11-20T10:20:28;6.50;50.80
12874;DHT22;6505;51.114;13.128;2022-11-20T10:23:22;6.60;50.90
12874;DHT22;6505;51.114;13.128;2022-11-20T10:26:02;6.60;50.60
12874;DHT22;6505;51.114;13.128;2022-11-20T10:28:48;6.60;50.90
12874;DHT22;6505;51.114;13.128;2022-11-20T10:31:35;6.60;50.80
12874;DHT22;6505;51.114;13.128;2022-11-20T10:34:07;6.60;50.80
12874;DHT22;6505;51.114;13.128;2022-11-20T10:36:52;6.70;50.80
12874;DHT22;6505;51.114;13.128;2022-11-20T10:39:31;6.70;51.00
12874;DHT22;6505;51.114;13.128;2022-11-20T10:42:03;6.70;51.10
12874;DHT22;6505;51.114;13.128;2022-11-20T10:44:40;6.70;51.20
12874;DHT22;6505;51.114;13.128;2022-11-20T10:47:34;6.70;51.20
12874;DHT22;6505;51.114;13.128;2022-11-20T10:50:04;6.70;51.10
12874;DHT22;6505;51.114;13.128;2022-11-20T10:52:45;6.70;51.20
12874;DHT22;6505;51.114;13.128;2022-11-20T10:55:30;6.70;51.10
12874;DHT22;6505;51.114;13.128;2022-11-20T10:58:11;6.70;51.00
12874;DHT22;6505;51.114;13.128;2022-11-20T11:00:44;6.70;51.10
12874;DHT22;6505;51.114;13.128;2022-11-20T11:03:22;6.80;51.00
12874;DHT22;6505;51.114;13.128;2022-11-20T11:05:58;6.80;51.00
12874;DHT22;6505;51.114;13.128;2022-11-20T11:08:35;6.80;51.00
12874;DHT22;6505;51.114;13.128;2022-11-20T11:11:15;6.80;51.00
12874;DHT22;6505;51.114;13.128;2022-11-20T11:13:48;6.80;50.90
12874;DHT22;6505;51.114;13.128;2022-11-20T11:16:20;6.90;50.90
12874;DHT22;6505;51.114;13.128;2022-11-20T11:19:02;6.90;50.80
12874;DHT22;6505;51.114;13.128;2022-11-20T11:21:31;6.90;50.80
12874;DHT22;6505;51.114;13.128;2022-11-20T11:24:00;6.90;50.70
12874;DHT22;6505;51.114;13.128;2022-11-20T11:26:57;6.90;50.80
12874;DHT22;6505;51.114;13.128;2022-11-20T11:29:26;6.90;50.80
12874;DHT22;6505;51.114;13.128;2022-11-20T11:32:04;7.00;50.60
12874;DHT22;6505;51.114;13.128;2022-11-20T11:34:34;7.00;50.70
12874;DHT22;6505;51.114;13.128;2022-11-20T11:37:02;7.00;50.60
12874;DHT22;6505;51.114;13.128;2022-11-20T11:39:33;7.00;50.80
12874;DHT22;6505;51.114;13.128;2022-11-20T11:42:01;7.10;50.80
12874;DHT22;6505;51.114;13.128;2022-11-20T11:44:33;7.10;50.90
12874;DHT22;6505;51.114;13.128;2022-11-20T11:47:22;7.10;50.90
12874;DHT22;6505;51.114;13.128;2022-11-20T11:50:07;7.10;51.10
12874;DHT22;6505;51.114;13.128;2022-11-20T11:52:45;7.10;51.10
12874;DHT22;6505;51.114;13.128;2022-11-20T11:55:26;7.10;51.00
12874;DHT22;6505;51.114;13.128;2022-11-20T11:58:08;7.10;51.00
12874;DHT22;6505;51.114;13.128;2022-11-20T12:00:47;7.10;51.00
12874;DHT22;6505;51.114;13.128;2022-11-20T12:03:24;7.20;51.30
12874;DHT22;6505;51.114;13.128;2022-11-20T12:06:01;7.20;51.20
12874;DHT22;6505;51.114;13.128;2022-11-20T12:08:42;7.20;51.30
12874;DHT22;6505;51.114;13.128;2022-11-20T12:11:19;7.20;51.50
12874;DHT22;6505;51.114;13.128;2022-11-20T12:13:55;7.20;51.60
12874;DHT22;6505;51.114;13.128;2022-11-20T12:16:34;7.20;51.80
12874;DHT22;6505;51.114;13.128;2022-11-20T12:19:08;7.30;51.90
12874;DHT22;6505;51.114;13.128;2022-11-20T12:21:47;7.30;51.90
12874;DHT22;6505;51.114;13.128;2022-11-20T12:24:39;7.40;52.00
12874;DHT22;6505;51.114;13.128;2022-11-20T12:27:36;7.40;52.00
12874;DHT22;6505;51.114;13.128;2022-11-20T12:30:15;7.40;52.10
12874;DHT22;6505;51.114;13.128;2022-11-20T12:33:00;7.40;52.10
12874;DHT22;6505;51.114;13.128;2022-11-20T12:35:58;7.40;52.20
12874;DHT22;6505;51.114;13.128;2022-11-20T12:39:02;7.40;52.60
12874;DHT22;6505;51.114;13.128;2022-11-20T12:42:09;7.50;52.70
12874;DHT22;6505;51.114;13.128;2022-11-20T12:48:39;7.50;52.70
12874;DHT22;6505;51.114;13.128;2022-11-20T12:51:28;7.50;52.60
12874;DHT22;6505;51.114;13.128;2022-11-20T12:54:28;7.50;52.60
12874;DHT22;6505;51.114;13.128;2022-11-20T12:57:24;7.50;52.50
12874;DHT22;6505;51.114;13.128;2022-11-20T13:00:10;7.60;52.60
12874;DHT22;6505;51.114;13.128;2022-11-20T13:02:58;7.60;52.60
12874;DHT22;6505;51.114;13.128;2022-11-20T13:05:53;7.60;52.50
12874;DHT22;6505;51.114;13.128;2022-11-20T13:08:30;7.60;52.50
12874;DHT22;6505;51.114;13.128;2022-11-20T13:11:09;7.60;52.50
12874;DHT22;6505;51.114;13.128;2022-11-20T13:13:48;7.60;52.60
12874;DHT22;6505;51.114;13.128;2022-11-20T13:16:34;7.70;52.70
12874;DHT22;6505;51.114;13.128;2022-11-20T13:19:10;7.70;52.70
12874;DHT22;6505;51.114;13.128;2022-11-20T13:21:42;7.70;52.60
12874;DHT22;6505;51.114;13.128;2022-11-20T13:24:24;7.70;52.60
12874;DHT22;6505;51.114;13.128;2022-11-20T13:27:17;7.70;52.50
12874;DHT22;6505;51.114;13.128;2022-11-20T13:29:59;7.80;52.60
12874;DHT22;6505;51.114;13.128;2022-11-20T13:32:48;7.70;52.60
12874;DHT22;6505;51.114;13.128;2022-11-20T13:35:29;7.80;52.60
12874;DHT22;6505;51.114;13.128;2022-11-20T13:38:01;7.80;52.60
12874;DHT22;6505;51.114;13.128;2022-11-20T13:40:31;7.80;52.50
12874;DHT22;6505;51.114;13.128;2022-11-20T13:43:21;7.80;52.30
12874;DHT22;6505;51.114;13.128;2022-11-20T13:45:56;7.80;52.20
12874;DHT22;6505;51.114;13.128;2022-11-20T13:48:29;7.80;52.40
12874;DHT22;6505;51.114;13.128;2022-11-20T13:51:09;7.80;52.40
12874;DHT22;6505;51.114;13.128;2022-11-20T13:53:57;7.80;52.30
12874;DHT22;6505;51.114;13.128;2022-11-20T13:56:43;7.80;52.30
12874;DHT22;6505;51.114;13.128;2022-11-20T13:59:33;7.80;52.20
12874;DHT22;6505;51.114;13.128;2022-11-20T14:02:11;7.80;52.10
12874;DHT22;6505;51.114;13.128;2022-11-20T14:04:43;7.80;52.00
12874;DHT22;6505;51.114;13.128;2022-11-20T14:07:13;7.80;52.00
12874;DHT22;6505;51.114;13.128;2022-11-20T14:09:50;7.90;52.00
12874;DHT22;6505;51.114;13.128;2022-11-20T14:12:22;7.80;51.90
12874;DHT22;6505;51.114;13.128;2022-11-20T14:14:56;7.80;51.90
12874;DHT22;6505;51.114;13.128;2022-11-20T14:17:31;7.80;52.00
12874;DHT22;6505;51.114;13.128;2022-11-20T14:20:04;7.80;51.70
12874;DHT22;6505;51.114;13.128;2022-11-20T14:22:33;7.90;52.00
12874;DHT22;6505;51.114;13.128;2022-11-20T14:25:05;7.90;51.80
12874;DHT22;6505;51.114;13.128;2022-11-20T14:27:50;7.90;52.00
12874;DHT22;6505;51.114;13.128;2022-11-20T14:30:22;7.90;52.00
12874;DHT22;6505;51.114;13.128;2022-11-20T14:32:56;7.80;51.90
12874;DHT22;6505;51.114;13.128;2022-11-20T14:35:30;7.90;51.90
12874;DHT22;6505;51.114;13.128;2022-11-20T14:38:02;7.80;51.90
12874;DHT22;6505;51.114;13.128;2022-11-20T14:40:33;7.90;51.90
12874;DHT22;6505;51.114;13.128;2022-11-20T14:43:17;7.90;51.90
12874;DHT22;6505;51.114;13.128;2022-11-20T14:45:55;7.90;51.80
12874;DHT22;6505;51.114;13.128;2022-11-20T14:48:29;7.90;52.00
12874;DHT22;6505;51.114;13.128;2022-11-20T14:51:00;7.90;51.80
12874;DHT22;6505;51.114;13.128;2022-11-20T14:53:28;7.90;51.80
12874;DHT22;6505;51.114;13.128;2022-11-20T14:55:58;7.90;51.80
12874;DHT22;6505;51.114;13.128;2022-11-20T14:58:29;7.90;51.90
12874;DHT22;6505;51.114;13.128;2022-11-20T15:01:03;7.90;51.80
12874;DHT22;6505;51.114;13.128;2022-11-20T15:03:33;7.90;51.80
12874;DHT22;6505;51.114;13.128;2022-11-20T15:06:04;7.90;51.90
12874;DHT22;6505;51.114;13.128;2022-11-20T15:08:33;7.90;51.90
12874;DHT22;6505;51.114;13.128;2022-11-20T15:11:02;7.90;51.80
12874;DHT22;6505;51.114;13.128;2022-11-20T15:13:32;7.90;51.80
12874;DHT22;6505;51.114;13.128;2022-11-20T15:16:13;7.90;51.80
12874;DHT22;6505;51.114;13.128;2022-11-20T15:18:46;7.90;51.70
12874;DHT22;6505;51.114;13.128;2022-11-20T15:21:16;7.90;51.80
12874;DHT22;6505;51.114;13.128;2022-11-20T15:23:45;7.90;51.80
12874;DHT22;6505;51.114;13.128;2022-11-20T15:26:15;7.80;51.60
12874;DHT22;6505;51.114;13.128;2022-11-20T15:28:48;7.90;51.60
12874;DHT22;6505;51.114;13.128;2022-11-20T15:31:21;7.90;51.60
12874;DHT22;6505;51.114;13.128;2022-11-20T15:33:50;7.90;51.60
12874;DHT22;6505;51.114;13.128;2022-11-20T15:36:18;7.80;51.40
12874;DHT22;6505;51.114;13.128;2022-11-20T15:38:46;7.80;51.40
12874;DHT22;6505;51.114;13.128;2022-11-20T15:41:15;7.80;51.40
12874;DHT22;6505;51.114;13.128;2022-11-20T15:43:43;7.80;51.40
12874;DHT22;6505;51.114;13.128;2022-11-20T15:46:13;7.80;51.40
12874;DHT22;6505;51.114;13.128;2022-11-20T15:48:45;7.80;51.50
12874;DHT22;6505;51.114;13.128;2022-11-20T15:51:23;7.80;51.60
12874;DHT22;6505;51.114;13.128;2022-11-20T15:53:55;7.80;51.40
12874;DHT22;6505;51.114;13.128;2022-11-20T15:56:24;7.80;52.10
12874;DHT22;6505;51.114;13.128;2022-11-20T15:58:53;7.80;51.30
12874;DHT22;6505;51.114;13.128;2022-11-20T16:01:21;7.80;52.00
12874;DHT22;6505;51.114;13.128;2022-11-20T16:03:51;7.70;51.40
12874;DHT22;6505;51.114;13.128;2022-11-20T16:06:19;7.80;51.40
12874;DHT22;6505;51.114;13.128;2022-11-20T16:08:47;7.70;51.30
12874;DHT22;6505;51.114;13.128;2022-11-20T16:11:16;7.80;51.40
12874;DHT22;6505;51.114;13.128;2022-11-20T16:13:45;7.80;52.10
12874;DHT22;6505;51.114;13.128;2022-11-20T16:16:33;7.70;51.20
12874;DHT22;6505;51.114;13.128;2022-11-20T16:19:03;7.70;51.40
12874;DHT22;6505;51.114;13.128;2022-11-20T16:21:32;7.70;51.30
12874;DHT22;6505;51.114;13.128;2022-11-20T16:24:03;7.70;51.40
12874;DHT22;6505;51.114;13.128;2022-11-20T16:26:32;7.70;51.40
12874;DHT22;6505;51.114;13.128;2022-11-20T16:29:02;7.70;51.30